Terminal Aerodrome Forecast
Issued by NWS

Home | Current Version | Previous Version | Graphics & Text | Print | Product List | Glossary On
Versions: 1 2 3 4 5 6 7 8 9 10 11 12 13 14 15 16 17 18 19 20 21
298
FTUS43 KGRB 251236 AAB
TAFMTW
TAF AMD
KMTW 251236Z 2513/2612 14010KT P6SM OVC015
     FM251600 15013G20KT P6SM BKN015 OVC040
      TEMPO 2517/2521 4SM -SHRA BR
     FM252100 17015G22KT 4SM SHRA BKN015 OVC025
     FM260300 23011G18KT P6SM SCT015 BKN035=

USA.gov is the U.S. government's official web portal to all federal, state and local government web resources and services.